Fitbit Current Ratio 2013-2019 | FIT

Fitbit current ratio from 2013 to 2019. Current ratio can be defined as a liquidity ratio that measures a company's ability to pay short-term obligations.
Fitbit Current Ratio Historical Data
Date Current Assets Current Liabilities Current Ratio
2019-03-31 $1.10B $0.59B 1.87
2018-12-31 $1.31B $0.72B 1.82
2018-09-30 $1.20B $0.65B 1.84
2018-06-30 $1.11B $0.58B 1.89
2018-03-31 $1.16B $0.55B 2.11
2017-12-31 $1.38B $0.70B 1.97
2017-09-30 $1.23B $0.57B 2.18
2017-06-30 $1.13B $0.48B 2.37
2017-03-31 $1.18B $0.52B 2.28
2016-12-31 $1.48B $0.76B 1.96
2016-09-30 $1.44B $0.52B 2.76
2016-06-30 $1.39B $0.51B 2.73
2016-03-31 $1.40B $0.53B 2.66
2015-12-31 $1.36B $0.51B 2.67
2015-09-30 $1.18B $0.46B 2.56
2015-06-30 $0.97B $0.31B 3.14
2015-03-31 $0.60B $0.42B 1.42
2014-12-31 $0.56B $0.46B 1.22
2014-09-30 $0.00B $0.00B 0.00
2014-06-30 $0.00B $0.00B 0.00
2014-03-31 $0.00B $0.00B 0.00
2013-12-31 $0.22B $0.21B 1.07
2012-12-31 $0.22B $0.21B 1.07
Sector Industry Market Cap Revenue
Computer and Technology Electrical Measuring Instruments $0.998B $1.512B
Fitbit Inc. manufactures and markets wearable fitness-tracking devices. The Company's product consists of Fitbit Zip, Fitbit One, Fitbit Flex, Fitbit Charge, Fitbit Charge HR, Fitbit Surge and Aria. It also offers accessories which include bands and clips, charging cables and Fitbit apparel. Fitbit Inc. is headquartered in San Francisco, California.
Stock Name Country Market Cap PE Ratio
Keysight Technologies (KEYS) United States $15.774B 22.60
Nova Measuring Instruments (NVMI) Israel $0.739B 14.85
Camtek (CAMT) Israel $0.297B 14.02
Geospace Technologies (GEOS) United States $0.175B 0.00
Perceptron (PRCP) United States $0.043B 26.24
Aehr Test Systems (AEHR) United States $0.036B 0.00